Terminal Aerodrome Forecast
Issued by NWS Omaha/Valley, NE

Home | Current Version | Previous Version | Text Only | Print | Product List | Glossary On
Versions: 1 2 3 4 5 6 7 8 9 10 11 12 13 14 15 16 17 18
000
FTUS43 KOAX 261734
TAFOMA
TAF
KOMA 261734Z 2618/2718 12005KT P6SM SCT020 BKN035
      TEMPO 2618/2621 -SHRA
     FM270400 11005KT P6SM OVC020
      TEMPO 2709/2713 4SM BR
     FM271500 VRB04KT P6SM SCT020=

USA.gov is the U.S. government's official web portal to all federal, state and local government web resources and services.